Terminal Aerodrome Forecast
Issued by NWS Louisville, KY

Home | Current Version | Previous Version | Text Only | Print | Product List | Glossary On
Versions: 1 2 3 4 5 6 7 8 9 10 11 12 13 14 15
627
FTUS43 KLMK 101734
TAFSDF
TAF
KSDF 101734Z 1018/1124 28013KT P6SM VCSH BKN035
     FM110100 30004KT P6SM BKN035
     FM110700 31003KT P6SM SCT030 BKN070
     FM111400 36003KT P6SM SCT080=

USA.gov is the U.S. government's official web portal to all federal, state and local government web resources and services.